Hayden, CO (81639)

07:39 AM MDT am 30. Oktober 2014 (GMT -0600)
Yampa Valley | Change Station
CLOSE
Current Station
Flughafen
Location: Hayden,
Höhe: 6601 ft
Wetterstationen in der Umgebung

Höhe 6601 ft 40.48 °N, 107.22 °W | Updated 4 minutes ago

Clear
Heiter
32 °F
gefühlte 25 °F
N
8
Wind Wechselnd Wind aus Ost-Südost

Heute
Max. -- | schwach -- °F
--% Regenrisiko
Gestern
Max. -- | schwach -- °F
Precip. -- inch
7:36 AM 6:08 PM
Erstes Viertel, 44% visible
Druck 30.39 inch
Sichtweite 10.0 Meilen
Wolken Heiter
Windchill 25 °F
Taupunkt 21 °F
Feuchtigkeit 64%
Regen 0.00 inch
Schneehöhe Nicht verfügbar..
UV 0 von 12
Pollen .70 von 12
Luftqualität Nicht verfügbar..
Flu Activity Nicht verfügbar..
METAR KHDN 301335Z AUTO 11007KT 10SM CLR 00/M06 A3039 RMK AO1

More Conditions Fewer Conditions

Druck 30.39 inch
Sichtweite 10.0 Meilen
Wolken Heiter
Windchill 25 °F
Taupunkt 21 °F
Feuchtigkeit 64%
Regen 0.00 inch
Schneehöhe Nicht verfügbar..
UV 0 von 12
Pollen .70 von 12
Luftqualität Nicht verfügbar..
Flu Activity Nicht verfügbar..
METAR KHDN 301335Z AUTO 11007KT 10SM CLR 00/M06 A3039 RMK AO1

More Conditions Fewer Conditions

10-Day Weather Forecast

Almanac

Astronomie

Oct. 30, 2014 Aufgang Untergang
Genaue Zeit
Bürgerliche Dämmerung
Nautische Dämmerung
Astronomische Dämmerung
Mond
Länge des sichtbaren Lichts
Tageslänge
Tomorrow will be .
, % of the Moon is Illuminated

Heutige Rekorde

State Highs State Lows

Community

WunderPhotos

Upload Photos

1,766,358 Fotos hochgeladen!

WunderBlogs® & News

Nearby

Luftqualität

  Luftqualität LQ Index Schadstoff
Not available.

Schneehöhe

Station Depth Höhe

Erdbebenaktivität

Stadt Distance Mag. Time & Date
Minimum magnitude displayed is 2.5.

küstennahe Wassertemperaturen

Ort Temperatur

Wetterstationen in der Umgebung